Terminal Aerodrome Forecast
Issued by NWS

Home | Current Version | Previous Version | Text Only | Print | Product List | Glossary On
Versions: 1 2 3 4 5 6 7 8 9 10 11 12 13 14 15 16 17 18 19 20
000
FTUS43 KFGF 041742
TAFDVL
TAF
KDVL 041742Z 0418/0518 18012KT 5SM HZ SCT040
     FM042000 18012KT 5SM HZ BKN250
     FM042300 18008KT P6SM BKN150
     FM050300 16008KT P6SM VCTS SCT040CB BKN100
      AMD LTD TO CLD VIS AND WIND=

USA.gov is the U.S. government's official web portal to all federal, state and local government web resources and services.